Time;durP1;ratioP1;P1;durP2;ratioP2;P2;SDS_P1;SDS_P2;PMS_P1;PMS_P2;Temp;Humidity;BMP_temperature;BMP_pressure;BME280_temperature;BME280_humidity;BME280_pressure;Samples;Min_cycle;Max_cycle;Signal;HPM_P1;HPM_P2
2023/08/09 00:00:02;;;;;;;2.70;1.70;;;17.50;99.90;;;;;;5113225;28;20024;-71
2023/08/09 00:02:28;;;;;;;2.60;1.50;;;17.40;99.90;;;;;;5112215;28;20468;-71
2023/08/09 00:04:53;;;;;;;3.08;1.42;;;17.40;99.90;;;;;;5113328;28;20027;-71
2023/08/09 00:07:19;;;;;;;2.50;1.40;;;17.40;99.90;;;;;;5113275;28;20042;-71
2023/08/09 00:09:45;;;;;;;3.65;1.50;;;17.40;99.90;;;;;;5112187;28;20475;-72
2023/08/09 00:12:10;;;;;;;3.80;1.38;;;17.40;99.90;;;;;;5113101;28;20024;-71
2023/08/09 00:14:36;;;;;;;1.65;1.23;;;17.40;99.90;;;;;;5113118;28;20031;-72
2023/08/09 00:17:01;;;;;;;2.42;1.67;;;17.40;99.90;;;;;;5113352;28;20028;-72
2023/08/09 00:19:27;;;;;;;3.40;1.50;;;17.30;99.90;;;;;;5113078;28;20051;-70
2023/08/09 00:21:52;;;;;;;2.78;1.55;;;17.30;99.90;;;;;;5115860;28;20099;-71
2023/08/09 00:24:18;;;;;;;2.45;1.50;;;17.30;99.90;;;;;;5116816;28;20027;-73
2023/08/09 00:26:44;;;;;;;1.55;1.40;;;17.20;99.90;;;;;;5079954;27;1081678;-72
2023/08/09 00:29:09;;;;;;;5.43;1.50;;;17.20;99.90;;;;;;5134415;27;20042;-72
2023/08/09 00:31:35;;;;;;;1.70;1.35;;;17.20;99.90;;;;;;5133012;27;20428;-71
2023/08/09 00:34:01;;;;;;;3.72;2.35;;;17.20;99.90;;;;;;5134101;27;20026;-72
2023/08/09 00:36:27;;;;;;;3.03;1.63;;;17.20;99.90;;;;;;5133740;27;20404;-71
2023/08/09 00:38:53;;;;;;;3.33;1.80;;;17.10;99.90;;;;;;5115000;27;20034;-72
2023/08/09 00:41:19;;;;;;;3.55;1.80;;;17.10;99.90;;;;;;5133467;27;20436;-72
2023/08/09 00:43:44;;;;;;;2.33;1.55;;;17.10;99.90;;;;;;5133319;27;20035;-71
2023/08/09 00:46:10;;;;;;;4.97;1.73;;;17.10;99.90;;;;;;5134255;27;20110;-72
2023/08/09 00:48:36;;;;;;;5.07;1.83;;;17.10;99.90;;;;;;5133106;27;20059;-72
2023/08/09 00:51:02;;;;;;;4.07;1.73;;;17.00;99.90;;;;;;5133791;27;20023;-72
2023/08/09 00:53:28;;;;;;;3.88;1.70;;;16.80;99.90;;;;;;5133197;27;20031;-72
2023/08/09 00:55:54;;;;;;;1.95;1.48;;;16.80;99.90;;;;;;5133384;27;20102;-72
2023/08/09 00:58:19;;;;;;;2.20;1.40;;;16.80;99.90;;;;;;5133455;27;20023;-72
2023/08/09 01:00:45;;;;;;;3.00;1.50;;;16.70;99.90;;;;;;5132538;27;20452;-72
2023/08/09 01:03:11;;;;;;;4.00;1.70;;;16.70;99.90;;;;;;5133559;27;20023;-72
2023/08/09 01:05:51;;;;;;;4.10;1.88;;;16.70;99.90;;;;;;5132540;27;20019;-71
2023/08/09 01:08:47;;;;;;;2.80;1.63;;;16.60;99.90;;;;;;5115516;27;20042;-72
2023/08/09 01:11:50;;;;;;;3.33;1.30;;;16.60;99.90;;;;;;5126552;27;20046;-72
2023/08/09 01:14:17;;;;;;;2.80;1.55;;;16.50;99.90;;;;;;5133376;27;20062;-72
2023/08/09 01:16:45;;;;;;;3.33;1.52;;;16.50;99.90;;;;;;5132584;27;20110;-71
2023/08/09 01:19:25;;;;;;;3.05;1.45;;;16.50;99.90;;;;;;5133363;27;20172;-72
2023/08/09 01:21:53;;;;;;;4.03;1.60;;;16.40;99.90;;;;;;5132441;27;20038;-72
2023/08/09 01:24:19;;;;;;;2.20;1.35;;;16.40;99.90;;;;;;5081500;28;20031;-72
2023/08/09 01:26:45;;;;;;;3.50;1.88;;;16.40;99.90;;;;;;5128496;27;20020;-72
2023/08/09 01:29:10;;;;;;;4.15;1.95;;;16.50;99.90;;;;;;5111974;28;20469;-71
2023/08/09 01:31:36;;;;;;;2.38;1.40;;;16.50;99.90;;;;;;5112214;28;20035;-71
2023/08/09 01:34:02;;;;;;;2.67;1.50;;;16.50;99.90;;;;;;5112659;28;20028;-71
2023/08/09 01:36:33;;;;;;;3.63;1.60;;;16.50;99.90;;;;;;5112480;28;20398;-72
2023/08/09 01:39:10;;;;;;;2.38;1.30;;;16.40;99.90;;;;;;5112650;28;20031;-72
2023/08/09 01:41:37;;;;;;;3.92;1.63;;;16.30;99.90;;;;;;5111891;28;20122;-71
2023/08/09 01:44:05;;;;;;;6.13;1.90;;;16.10;99.90;;;;;;5112181;28;20028;-72
2023/08/09 01:46:31;;;;;;;2.75;1.67;;;16.00;99.90;;;;;;5112860;28;20068;-71
2023/08/09 01:49:21;;;;;;;4.70;1.85;;;16.00;99.90;;;;;;5111842;28;20039;-72
2023/08/09 01:51:47;;;;;;;2.80;1.25;;;16.00;99.90;;;;;;5111688;28;20028;-72
2023/08/09 01:54:14;;;;;;;5.53;1.55;;;15.90;99.90;;;;;;5112395;28;20062;-72
2023/08/09 01:56:40;;;;;;;4.82;1.73;;;15.90;99.90;;;;;;5111685;28;20080;-72
2023/08/09 01:59:06;;;;;;;4.32;1.80;;;15.90;99.90;;;;;;5112372;28;20054;-71
2023/08/09 02:01:33;;;;;;;3.80;1.75;;;;;;;;;;5112413;28;20027;-71
2023/08/09 02:03:59;;;;;;;1.80;1.70;;;;;;;;;;5112227;28;20016;-72
2023/08/09 02:06:26;;;;;;;4.13;1.80;;;;;;;;;;5112467;28;20051;-72
2023/08/09 02:08:52;;;;;;;3.80;1.75;;;;;;;;;;5111417;28;20732;-71
2023/08/09 02:11:18;;;;;;;3.05;1.75;;;;;;;;;;5112203;28;20151;-70
2023/08/09 02:13:44;;;;;;;4.45;1.92;;;;;;;;;;5111665;28;20024;-70
2023/08/09 02:16:10;;;;;;;4.07;1.52;;;;;;;;;;5118973;28;20023;-71
2023/08/09 02:18:36;;;;;;;1.75;1.65;;;;;;;;;;5122848;28;20024;-70
2023/08/09 02:21:02;;;;;;;2.55;1.90;;;;;;;;;;5126190;28;20511;-71
2023/08/09 02:23:28;;;;;;;2.88;1.90;;;;;;;;;;5122786;28;20028;-72
2023/08/09 02:25:55;;;;;;;5.82;1.90;;;;;;;;;;5121882;28;20075;-73
2023/08/09 02:28:21;;;;;;;3.42;1.60;;;;;;;;;;5139149;28;20481;-72
2023/08/09 02:30:49;;;;;;;2.30;1.75;;;;;;;;;;5143273;28;20028;-71
2023/08/09 02:33:15;;;;;;;2.00;1.50;;;;;;;;;;5144737;28;20035;-72
2023/08/09 02:36:02;;;;;;;2.15;1.83;;;;;;;;;;5143967;28;20023;-73
2023/08/09 02:38:29;;;;;;;2.50;1.63;;;;;;;;;;5142027;28;20046;-71
2023/08/09 02:40:55;;;;;;;2.25;1.70;;;;;;;;;;5144695;27;20197;-73
2023/08/09 02:43:25;;;;;;;5.80;2.25;;;;;;;;;;5145049;27;20026;-71
2023/08/09 02:45:51;;;;;;;2.65;1.80;;;;;;;;;;5124192;27;20032;-72
2023/08/09 02:48:18;;;;;;;4.88;1.92;;;;;;;;;;5139548;27;20031;-72
2023/08/09 02:50:43;;;;;;;2.28;1.45;;;;;;;;;;5135719;27;20027;-72
2023/08/09 02:53:10;;;;;;;2.38;1.63;;;;;;;;;;5142309;27;20022;-72
2023/08/09 02:55:36;;;;;;;1.75;1.50;;;;;;;;;;5136873;27;20030;-71
2023/08/09 02:58:03;;;;;;;3.60;1.63;;;;;;;;;;5136966;27;20084;-71
2023/08/09 03:00:33;;;;;;;2.67;1.90;;;;;;;;;;5136480;27;20090;-72
2023/08/09 03:03:00;;;;;;;2.63;1.90;;;;;;;;;;5136241;27;20031;-71
2023/08/09 03:05:26;;;;;;;2.60;1.80;;;;;;;;;;5136568;27;20037;-73
2023/08/09 03:07:52;;;;;;;2.55;1.83;;;;;;;;;;5135107;27;20045;-72
2023/08/09 03:10:18;;;;;;;3.08;1.95;;;;;;;;;;5135687;27;20521;-72
2023/08/09 03:12:44;;;;;;;3.55;1.92;;;;;;;;;;5134637;27;20031;-71
2023/08/09 03:15:11;;;;;;;3.65;1.95;;;;;;;;;;5135745;27;20063;-72
2023/08/09 03:17:37;;;;;;;4.63;1.98;;;;;;;;;;5135048;27;20490;-70
2023/08/09 03:20:10;;;;;;;3.45;1.50;;;;;;;;;;5135327;27;20025;-71
2023/08/09 03:22:36;;;;;;;3.40;1.90;;;;;;;;;;5135396;27;20019;-70
2023/08/09 03:25:02;;;;;;;9.38;1.50;;;;;;;;;;5134868;27;20540;-72
2023/08/09 03:27:28;;;;;;;2.13;1.70;;;;;;;;;;5124780;27;20487;-72
2023/08/09 03:29:54;;;;;;;2.47;1.70;;;;;;;;;;5113857;28;20024;-72
2023/08/09 03:32:20;;;;;;;5.25;1.85;;;;;;;;;;5115042;28;20376;-71
2023/08/09 03:34:46;;;;;;;1.73;1.45;;;;;;;;;;5114265;28;20031;-71
2023/08/09 03:37:12;;;;;;;1.98;1.50;;;;;;;;;;5115182;28;20353;-71
2023/08/09 03:39:38;;;;;;;3.85;1.50;;;;;;;;;;5114576;28;20132;-71
2023/08/09 03:42:04;;;;;;;3.88;1.40;;;;;;;;;;5114051;28;20055;-72
2023/08/09 03:44:30;;;;;;;5.97;1.60;;;;;;;;;;5114638;28;20096;-73
2023/08/09 03:46:56;;;;;;;3.67;1.75;;;;;;;;;;5113905;28;20536;-72
2023/08/09 03:49:22;;;;;;;3.22;1.55;;;;;;;;;;5114500;28;20132;-72
2023/08/09 03:51:48;;;;;;;3.53;1.75;;;;;;;;;;5112530;28;20364;-71
2023/08/09 03:54:14;;;;;;;2.67;1.70;;;;;;;;;;5114410;28;20034;-72
2023/08/09 03:56:40;;;;;;;3.47;1.67;;;;;;;;;;5114916;28;20027;-70
2023/08/09 03:59:07;;;;;;;2.33;1.77;;;;;;;;;;5116140;28;20034;-71
2023/08/09 04:01:33;;;;;;;3.22;1.40;;;;;;;;;;5114385;28;20016;-71
2023/08/09 04:03:59;;;;;;;3.97;1.70;;;;;;;;;;5114359;28;20030;-72
2023/08/09 04:06:25;;;;;;;4.53;1.63;;;;;;;;;;5116941;28;20098;-73
2023/08/09 04:08:51;;;;;;;2.67;1.45;;;;;;;;;;5116396;28;20488;-72
2023/08/09 04:11:17;;;;;;;4.55;1.50;;;;;;;;;;5116055;28;20034;-72
2023/08/09 04:13:43;;;;;;;2.58;1.30;;;;;;;;;;5113203;28;20023;-73
2023/08/09 04:16:09;;;;;;;3.13;2.30;;;;;;;;;;5114285;28;20457;-72
2023/08/09 04:18:36;;;;;;;1.70;1.60;;;;;;;;;;5114057;28;20053;-72
2023/08/09 04:21:02;;;;;;;3.50;1.42;;;;;;;;;;5112928;28;20016;-71
2023/08/09 04:23:28;;;;;;;4.30;1.50;;;;;;;;;;5095455;28;20471;-70
2023/08/09 04:25:57;;;;;;;5.68;1.40;;;;;;;;;;5112948;28;20066;-70
2023/08/09 04:28:23;;;;;;;1.50;1.40;;;;;;;;;;5129991;27;20089;-72
2023/08/09 04:30:49;;;;;;;2.30;1.40;;;;;;;;;;5133220;27;20027;-71
2023/08/09 04:33:15;;;;;;;2.45;1.50;;;;;;;;;;5134185;27;20031;-72
2023/08/09 04:35:43;;;;;;;3.25;1.48;;;;;;;;;;5133502;27;20452;-70
2023/08/09 04:38:09;;;;;;;2.53;1.67;;;;;;;;;;5133840;27;20068;-70
2023/08/09 04:40:36;;;;;;;3.28;1.65;;;;;;;;;;5115878;27;20414;-71
2023/08/09 04:43:02;;;;;;;2.47;1.45;;;;;;;;;;5133288;27;20242;-70
2023/08/09 04:45:28;;;;;;;4.25;1.88;;;;;;;;;;5133663;27;20506;-72
2023/08/09 04:47:54;;;;;;;3.67;1.30;;;;;;;;;;5114637;27;20437;-72
2023/08/09 04:50:21;;;;;;;1.90;1.65;;;;;;;;;;5133976;27;20019;-72
2023/08/09 04:52:47;;;;;;;2.17;1.48;;;;;;;;;;5132816;27;20023;-71
2023/08/09 04:55:13;;;;;;;4.25;1.40;;;;;;;;;;5133506;27;20484;-71
2023/08/09 04:57:39;;;;;;;1.77;1.38;;;;;;;;;;5133712;27;20110;-72
2023/08/09 05:00:10;;;;;;;1.30;1.20;;;;;;;;;;5132799;27;20285;-71
2023/08/09 05:02:36;;;;;;;3.40;1.20;;;;;;;;;;5132992;27;20356;-72
2023/08/09 05:05:06;;;;;;;4.43;1.67;;;;;;;;;;5132606;27;20277;-72
2023/08/09 05:07:32;;;;;;;2.10;1.63;;;;;;;;;;5133523;27;20038;-71
2023/08/09 05:09:58;;;;;;;3.10;1.63;;;;;;;;;;5115104;27;20065;-71
2023/08/09 05:12:24;;;;;;;2.33;1.70;;;;;;;;;;5133959;27;20044;-72
2023/08/09 05:14:50;;;;;;;4.60;1.63;;;;;;;;;;5133448;27;20102;-71
2023/08/09 05:17:16;;;;;;;1.35;1.25;;;;;;;;;;5133012;27;20030;-71
2023/08/09 05:19:42;;;;;;;2.35;1.70;;;;;;;;;;5133108;27;20498;-72
2023/08/09 05:22:08;;;;;;;3.20;1.70;;;;;;;;;;5132397;27;20023;-72
2023/08/09 05:24:35;;;;;;;2.47;1.50;;;;;;;;;;5133010;27;20019;-72
2023/08/09 05:27:01;;;;;;;2.33;1.30;;;;;;;;;;5125944;27;20107;-71
2023/08/09 05:29:27;;;;;;;4.75;1.65;;;;;;;;;;5112564;28;20110;-71
2023/08/09 05:31:53;;;;;;;3.38;1.48;;;;;;;;;;5111893;28;20026;-71
2023/08/09 05:34:19;;;;;;;3.28;1.77;;;;;;;;;;5112742;28;20145;-72
2023/08/09 05:36:45;;;;;;;2.42;1.85;;;;;;;;;;5112087;28;20020;-71
2023/08/09 05:39:12;;;;;;;3.47;1.80;;;;;;;;;;5112126;28;20138;-72
2023/08/09 05:41:38;;;;;;;8.45;1.52;;;;;;;;;;5112408;28;20048;-72
2023/08/09 05:44:04;;;;;;;1.45;1.35;;;;;;;;;;5111583;28;20042;-72
2023/08/09 05:46:30;;;;;;;5.80;2.00;;;;;;;;;;5112652;28;20019;-72
2023/08/09 05:48:57;;;;;;;4.82;1.48;;;;;;;;;;5111428;28;20060;-71
2023/08/09 05:51:23;;;;;;;5.35;1.85;;;;;;;;;;5112507;28;20024;-73
2023/08/09 05:53:49;;;;;;;3.08;1.23;;;;;;;;;;5111516;28;20124;-70
2023/08/09 05:56:14;;;;;;;4.13;1.60;;;;;;;;;;5113788;28;20452;-72
2023/08/09 05:58:41;;;;;;;3.85;1.58;;;;;;;;;;5116599;28;20107;-72
2023/08/09 06:01:08;;;;;;;1.48;1.30;;;;;;;;;;5121394;28;20027;-71
2023/08/09 06:03:39;;;;;;;3.55;1.38;;;;;;;;;;5125885;28;20038;-71
2023/08/09 06:06:06;;;;;;;2.08;1.38;;;;;;;;;;5127635;28;20050;-71
2023/08/09 06:08:33;;;;;;;3.50;1.60;;;;;;;;;;5127213;28;20028;-71
2023/08/09 06:11:00;;;;;;;5.22;1.55;;;;;;;;;;5115419;28;20103;-72
2023/08/09 06:13:25;;;;;;;6.43;1.30;;;;;;;;;;5113863;28;20417;-72
2023/08/09 06:15:52;;;;;;;4.95;1.45;;;;;;;;;;5116300;28;20077;-72
2023/08/09 06:18:18;;;;;;;1.92;1.30;;;;;;;;;;5117528;28;20080;-73
2023/08/09 06:20:44;;;;;;;2.90;1.60;;;;;;;;;;5116195;28;20459;-72
2023/08/09 06:23:10;;;;;;;2.80;2.00;;;;;;;;;;5115669;28;20020;-72
2023/08/09 06:25:36;;;;;;;3.28;1.60;;;;;;;;;;5116366;28;20479;-71
2023/08/09 06:28:02;;;;;;;2.17;1.40;;;;;;;;;;5129936;27;20055;-71
2023/08/09 06:30:28;;;;;;;4.00;1.35;;;;;;;;;;5138520;27;20033;-72
2023/08/09 06:32:54;;;;;;;3.72;1.52;;;;;;;;;;5136651;27;20525;-71
2023/08/09 06:35:20;;;;;;;2.45;1.55;;;;;;;;;;5137335;27;20024;-72
2023/08/09 06:37:48;;;;;;;3.72;1.40;;;;;;;;;;5136500;27;20047;-71
2023/08/09 06:40:15;;;;;;;2.75;1.50;;;;;;;;;;5135444;27;20398;-72
2023/08/09 06:42:42;;;;;;;4.57;1.63;;;;;;;;;;5136160;27;20031;-72
2023/08/09 06:45:08;;;;;;;1.63;1.30;;;;;;;;;;5135496;27;20940;-71
2023/08/09 06:47:34;;;;;;;2.55;1.58;;;;;;;;;;5135950;27;20019;-72
2023/08/09 06:50:04;;;;;;;3.13;2.03;;;;;;;;;;5135315;27;20483;-71
2023/08/09 06:52:31;;;;;;;6.85;2.03;;;;;;;;;;5136339;27;20045;-72
2023/08/09 06:54:57;;;;;;;5.07;1.67;;;;;;;;;;5134727;27;20472;-72
2023/08/09 06:57:24;;;;;;;1.73;1.25;;;;;;;;;;5117683;27;20050;-71
2023/08/09 06:59:53;;;;;;;1.88;1.35;;;;;;;;;;5136050;27;20514;-71
2023/08/09 07:02:20;;;;;;;6.38;1.92;;;;;;;;;;5136415;27;20074;-71
2023/08/09 07:04:46;;;;;;;2.80;1.45;;;;;;;;;;5117064;27;20384;-71
2023/08/09 07:07:12;;;;;;;3.38;1.85;;;;;;;;;;5134631;27;20016;-72
2023/08/09 07:09:38;;;;;;;1.35;1.10;;;;;;;;;;5135531;27;20031;-71
2023/08/09 07:12:04;;;;;;;2.58;1.27;;;;;;;;;;5116222;27;20410;-72
2023/08/09 07:14:30;;;;;;;1.75;1.25;;;;;;;;;;5135409;27;20020;-71
2023/08/09 07:16:56;;;;;;;1.85;1.23;;;;;;;;;;5134320;27;20024;-72
2023/08/09 07:19:23;;;;;;;2.95;1.73;;;;;;;;;;5135219;27;20042;-72
2023/08/09 07:21:49;;;;;;;5.10;1.70;;;;;;;;;;5135165;27;20019;-72
2023/08/09 07:24:15;;;;;;;3.72;1.63;;;;;;;;;;5134262;27;20076;-71
2023/08/09 07:26:41;;;;;;;2.25;1.45;;;;;;;;;;5132336;27;20096;-72
2023/08/09 07:29:07;;;;;;;3.42;1.42;;;;;;;;;;5112804;28;20087;-73
2023/08/09 07:31:33;;;;;;;2.65;1.40;;;;;;;;;;5114788;28;20035;-71
2023/08/09 07:33:59;;;;;;;2.65;1.30;;;;;;;;;;5113778;28;20023;-72
2023/08/09 07:36:25;;;;;;;3.13;1.50;;;;;;;;;;5114598;28;20462;-71
2023/08/09 07:38:51;;;;;;;2.90;1.42;;;;;;;;;;5114543;28;20020;-72
2023/08/09 07:41:17;;;;;;;2.33;1.45;;;;;;;;;;5113780;28;20114;-72
2023/08/09 07:43:44;;;;;;;2.22;1.30;;;;;;;;;;5114375;28;20059;-72
2023/08/09 07:46:10;;;;;;;3.22;1.50;;;;;;;;;;5113253;28;20432;-72
2023/08/09 07:48:36;;;;;;;2.08;1.10;;;;;;;;;;5114768;28;20024;-72
2023/08/09 07:51:02;;;;;;;3.63;1.40;;;;;;;;;;5113938;28;20053;-73
2023/08/09 07:53:29;;;;;;;3.72;1.70;;;;;;;;;;5097042;28;20020;-72
2023/08/09 07:55:55;;;;;;;2.80;1.52;;;;;;;;;;5113773;28;20027;-71
2023/08/09 07:58:21;;;;;;;3.10;1.13;;;;;;;;;;5113918;28;20098;-72
2023/08/09 08:00:47;;;;;;;2.58;1.38;;;;;;;;;;5113978;28;20022;-72
2023/08/09 08:03:13;;;;;;;2.38;1.40;;;;;;;;;;5113334;28;20167;-72
2023/08/09 08:05:40;;;;;;;2.50;1.67;;;;;;;;;;5113926;28;20415;-72
2023/08/09 08:08:06;;;;;;;2.67;1.63;;;;;;;;;;5112974;28;20023;-71
2023/08/09 08:10:32;;;;;;;8.23;1.63;;;;;;;;;;5114064;28;20408;-73
2023/08/09 08:12:58;;;;;;;1.33;1.20;;;;;;;;;;5113059;28;20066;-70
2023/08/09 08:15:24;;;;;;;2.67;1.20;;;;;;;;;;5113966;28;20467;-72
2023/08/09 08:17:52;;;;;;;5.78;1.40;;;;;;;;;;5113805;28;20028;-71
2023/08/09 08:20:20;;;;;;;2.38;1.38;;;;;;;;;;5112928;28;20778;-70
2023/08/09 08:22:46;;;;;;;4.47;1.42;;;;;;;;;;5113665;28;20451;-72
2023/08/09 08:25:13;;;;;;;3.97;1.27;;;;;;;;;;5112552;28;20472;-71
2023/08/09 08:27:42;;;;;;;4.40;2.17;;;;;;;;;;5123426;27;20429;-72
2023/08/09 08:30:08;;;;;;;2.83;1.33;;;;;;;;;;5133236;27;20034;-71
2023/08/09 08:32:35;;;;;;;2.30;1.25;;;;;;;;;;5133953;27;20155;-72
2023/08/09 08:35:02;;;;;;;1.60;1.40;;;;;;;;;;5132926;27;20026;-71
2023/08/09 08:37:28;;;;;;;1.95;1.30;;;;;;;;;;5133440;27;20107;-71
2023/08/09 08:39:55;;;;;;;3.40;1.35;;;;;;;;;;5133617;27;20472;-72
2023/08/09 08:42:21;;;;;;;2.58;1.55;;;;;;;;;;5133174;27;20034;-72
2023/08/09 08:44:47;;;;;;;3.35;1.30;;;;;;;;;;5133519;27;20024;-71
2023/08/09 08:47:13;;;;;;;3.08;1.40;;;;;;;;;;5133037;27;20076;-71
2023/08/09 08:49:40;;;;;;;3.42;1.60;;;;;;;;;;5133798;27;20443;-72
2023/08/09 08:52:07;;;;;;;4.03;1.35;;;;;;;;;;5132838;27;20026;-71
2023/08/09 08:54:34;;;;;;;2.58;1.30;;;;;;;;;;5133514;27;20064;-71
2023/08/09 08:57:01;;;;;;;2.72;1.35;;;;;;;;;;5132776;27;20015;-71
2023/08/09 08:59:27;;;;;;;3.08;1.60;;;;;;;;;;5133451;27;20031;-71
2023/08/09 09:01:53;;;;;;;5.38;1.70;;;;;;;;;;5133188;27;20031;-72
2023/08/09 09:04:19;;;;;;;2.65;1.50;;;;;;;;;;5132418;27;20236;-71
2023/08/09 09:06:45;;;;;;;3.63;1.75;;;;;;;;;;5133167;27;20027;-72
2023/08/09 09:09:15;;;;;;;3.72;1.60;;;;;;;;;;5132208;27;20110;-71
2023/08/09 09:11:41;;;;;;;6.80;1.90;;;;;;;;;;5133064;27;20019;-71
2023/08/09 09:14:11;;;;;;;7.07;1.55;;;;;;;;;;5132650;27;20103;-72
2023/08/09 09:16:37;;;;;;;3.65;1.55;;;;;;;;;;5133021;27;20019;-71
2023/08/09 09:19:03;;;;;;;2.88;1.50;;;;;;;;;;5132165;27;20065;-71
2023/08/09 09:21:31;;;;;;;1.77;1.40;;;;;;;;;;5132903;27;20076;-71
2023/08/09 09:23:58;;;;;;;2.55;1.58;;;;;;;;;;5132793;27;20023;-70
2023/08/09 09:26:24;;;;;;;6.10;1.45;;;;;;;;;;5132256;27;20030;-71
2023/08/09 09:28:50;;;;;;;2.58;1.48;;;;;;;;;;5093336;28;20056;-72
2023/08/09 09:31:19;;;;;;;5.45;2.25;;;;;;;;;;5111600;28;20123;-71
2023/08/09 09:33:46;;;;;;;2.43;1.47;;;;;;;;;;5112265;28;20062;-71
2023/08/09 09:36:13;;;;;;;2.38;1.42;;;;;;;;;;5111399;28;20043;-71
2023/08/09 09:38:39;;;;;;;3.42;1.40;;;;;;;;;;5094171;28;20028;-72
2023/08/09 09:41:07;;;;;;;4.18;1.50;;;;;;;;;;5111658;28;20020;-70
2023/08/09 09:43:33;;;;;;;2.83;1.27;;;;;;;;;;5112264;28;20472;-71
2023/08/09 09:46:00;;;;;;;5.40;1.63;;;;;;;;;;5112373;28;20019;-71
2023/08/09 09:48:26;;;;;;;6.10;2.22;;;;;;;;;;5093467;28;20110;-72
2023/08/09 09:50:52;;;;;;;5.15;1.80;;;;;;;;;;5115326;28;20034;-72
2023/08/09 09:53:20;;;;;;;3.40;1.70;;;;;;;;;;5115642;28;20794;-71
2023/08/09 09:55:46;;;;;;;4.35;1.60;;;;;;;;;;5116326;28;20130;-72
2023/08/09 09:58:13;;;;;;;2.97;1.73;;;;;;;;;;5115472;28;20032;-71
2023/08/09 10:00:43;;;;;;;2.35;1.60;;;;;;;;;;5116490;28;20024;-72
2023/08/09 10:03:13;;;;;;;3.13;1.63;;;21.30;99.90;;;;;;5115340;28;20077;-72
2023/08/09 10:05:44;;;;;;;2.63;1.27;;;21.40;99.90;;;;;;5116201;28;20077;-72
2023/08/09 10:08:12;;;;;;;4.70;1.50;;;21.50;99.90;;;;;;5115361;28;20118;-71
2023/08/09 10:10:39;;;;;;;3.20;1.67;;;21.60;99.90;;;;;;5115996;28;20468;-72
2023/08/09 10:13:07;;;;;;;4.38;1.60;;;21.70;99.90;;;;;;5115341;28;20038;-71
2023/08/09 10:15:44;;;;;;;3.83;1.80;;;21.70;99.90;;;;;;5116006;28;20035;-72
2023/08/09 10:18:18;;;;;;;3.95;1.80;;;21.80;99.90;;;;;;5114811;28;20384;-71
2023/08/09 10:20:50;;;;;;;2.65;1.63;;;21.80;99.90;;;;;;5115993;28;20049;-72
2023/08/09 10:23:24;;;;;;;4.68;1.92;;;21.90;99.90;;;;;;5115329;28;20102;-71
2023/08/09 10:25:51;;;;;;;3.58;1.52;;;21.80;99.90;;;;;;5115813;28;20031;-72
2023/08/09 10:28:18;;;;;;;3.25;1.75;;;21.70;99.90;;;;;;5130502;27;20050;-74
2023/08/09 10:30:51;;;;;;;3.35;1.80;;;21.60;99.90;;;;;;5136360;27;20046;-72
2023/08/09 10:33:21;;;;;;;2.95;1.27;;;21.50;99.90;;;;;;5135430;27;20066;-72
2023/08/09 10:35:52;;;;;;;4.15;1.60;;;21.30;99.90;;;;;;5136160;27;20031;-72
2023/08/09 10:38:20;;;;;;;1.90;1.23;;;21.10;99.90;;;;;;5135198;27;20042;-73
2023/08/09 10:40:53;;;;;;;2.17;1.25;;;21.00;99.90;;;;;;5136161;27;20039;-72
2023/08/09 10:43:21;;;;;;;3.78;1.52;;;21.00;99.90;;;;;;5135404;27;20426;-72
2023/08/09 10:45:51;;;;;;;1.98;1.70;;;21.00;99.90;;;;;;5136475;27;20020;-74
2023/08/09 10:48:25;;;;;;;3.72;1.70;;;21.10;99.90;;;;;;5135224;27;20042;-71
2023/08/09 10:51:12;;;;;;;4.10;1.67;;;21.20;99.90;;;;;;5136077;27;20031;-72
2023/08/09 10:54:05;;;;;;;3.25;1.38;;;21.30;99.90;;;;;;5135994;27;20084;-72
2023/08/09 10:56:34;;;;;;;4.50;1.23;;;21.60;99.90;;;;;;5125207;27;20050;-71
2023/08/09 10:59:05;;;;;;;4.18;1.63;;;;;;;;;;5135523;27;20072;-73
2023/08/09 11:01:34;;;;;;;4.55;1.30;;;;;;;;;;5135097;27;20021;-72
2023/08/09 11:04:01;;;;;;;4.35;1.60;;;;;;;;;;5135795;27;20102;-72
2023/08/09 11:06:33;;;;;;;5.07;1.35;;;;;;;;;;5135047;27;20027;-72
2023/08/09 11:09:17;;;;;;;5.47;1.48;;;;;;;;;;5135132;27;20480;-73
2023/08/09 11:11:43;;;;;;;6.38;1.98;;;;;;;;;;5135348;27;20027;-72
2023/08/09 11:14:10;;;;;;;3.95;1.70;;;;;;;;;;5134191;27;20023;-72
2023/08/09 11:16:36;;;;;;;2.95;1.50;;;;;;;;;;5135266;27;20027;-71
2023/08/09 11:19:10;;;;;;;5.05;1.65;;;;;;;;;;5135221;27;20031;-72
2023/08/09 11:21:40;;;;;;;3.08;1.50;;;;;;;;;;5135217;27;20027;-72
2023/08/09 11:24:09;;;;;;;4.13;1.70;;;;;;;;;;5134832;27;20377;-71
2023/08/09 11:26:36;;;;;;;4.97;1.60;;;;;;;;;;5114955;27;20393;-71
2023/08/09 11:29:03;;;;;;;2.92;1.50;;;;;;;;;;5113828;28;20116;-73
2023/08/09 11:31:42;;;;;;;4.05;1.27;;;22.40;99.90;;;;;;5114854;28;20024;-72
2023/08/09 11:34:09;;;;;;;4.43;1.38;;;22.60;99.90;;;;;;5114807;28;20047;-72
2023/08/09 11:36:40;;;;;;;4.22;1.58;;;;;;;;;;5115342;28;20073;-72
2023/08/09 11:39:06;;;;;;;4.60;1.50;;;;;;;;;;5114056;28;20069;-72
2023/08/09 11:41:44;;;;;;;2.15;1.20;;;;;;;;;;5113959;28;20038;-72
2023/08/09 11:44:12;;;;;;;3.70;1.50;;;;;;;;;;5113885;28;20031;-71
2023/08/09 11:46:40;;;;;;;3.90;1.45;;;;;;;;;;5114095;28;20094;-71
2023/08/09 11:49:08;;;;;;;4.35;1.25;;;;;;;;;;5113802;28;20406;-71
2023/08/09 11:51:36;;;;;;;2.85;1.73;;;23.50;99.90;;;;;;5113333;28;20048;-71
2023/08/09 11:54:02;;;;;;;3.15;1.30;;;23.70;99.90;;;;;;5113909;28;20030;-71
2023/08/09 11:56:32;;;;;;;2.92;1.67;;;23.60;99.90;;;;;;5113191;28;20620;-71
2023/08/09 11:59:00;;;;;;;3.60;1.35;;;23.40;99.90;;;;;;5114228;28;20088;-72
2023/08/09 12:01:27;;;;;;;3.85;1.88;;;23.40;99.90;;;;;;5095139;28;20042;-71
2023/08/09 12:03:56;;;;;;;4.75;1.67;;;23.40;99.90;;;;;;5113872;28;20098;-71
2023/08/09 12:06:44;;;;;;;3.45;1.40;;;23.30;99.90;;;;;;5113091;28;20119;-70
2023/08/09 12:09:38;;;;;;;4.03;1.40;;;23.20;99.90;;;;;;5113372;28;20059;-70
2023/08/09 12:12:10;;;;;;;2.22;1.60;;;23.20;99.90;;;;;;5112944;28;20030;-71
2023/08/09 12:14:51;;;;;;;2.92;1.67;;;23.30;99.90;;;;;;5113809;28;20034;-71
2023/08/09 12:17:27;;;;;;;3.22;1.40;;;23.30;99.90;;;;;;5113146;28;20055;-72
2023/08/09 12:19:58;;;;;;;4.47;1.58;;;23.30;99.90;;;;;;5112532;28;20034;-72
2023/08/09 12:22:27;;;;;;;3.42;1.77;;;23.40;99.90;;;;;;5112707;28;20385;-72
2023/08/09 12:24:54;;;;;;;3.38;1.60;;;23.40;99.90;;;;;;5113559;28;20114;-71
2023/08/09 12:27:20;;;;;;;3.78;1.45;;;23.40;99.90;;;;;;5111934;28;20030;-72
2023/08/09 12:29:46;;;;;;;3.15;1.60;;;23.40;99.90;;;;;;5113398;28;20032;-71
2023/08/09 12:32:12;;;;;;;3.22;1.60;;;23.40;99.90;;;;;;5112848;28;20103;-71
2023/08/09 12:34:38;;;;;;;4.78;1.90;;;23.40;99.90;;;;;;5113388;28;20020;-72
2023/08/09 12:37:05;;;;;;;2.75;1.30;;;23.50;99.90;;;;;;5113103;28;20384;-72
2023/08/09 12:39:30;;;;;;;3.85;1.50;;;23.50;99.90;;;;;;5112298;28;20028;-71
2023/08/09 12:41:56;;;;;;;3.10;1.38;;;23.50;99.90;;;;;;5113223;28;20023;-71
2023/08/09 12:44:23;;;;;;;1.83;1.17;;;23.50;99.90;;;;;;5112373;28;20059;-71
2023/08/09 12:46:49;;;;;;;2.95;1.40;;;23.60;99.90;;;;;;5113385;28;20069;-72
2023/08/09 12:49:15;;;;;;;4.07;1.58;;;23.60;99.90;;;;;;5122803;28;20031;-70
2023/08/09 12:51:40;;;;;;;3.55;1.30;;;23.70;99.90;;;;;;5126242;28;20024;-71
2023/08/09 12:54:08;;;;;;;1.98;1.30;;;23.80;99.90;;;;;;5127834;28;20027;-71
2023/08/09 12:56:34;;;;;;;3.40;1.40;;;24.00;99.90;;;;;;5125905;28;20028;-71
2023/08/09 12:59:00;;;;;;;4.05;1.67;;;24.00;99.90;;;;;;5127916;28;20034;-71
2023/08/09 13:01:26;;;;;;;2.92;1.77;;;24.10;99.40;;;;;;5116451;28;20092;-72
2023/08/09 13:03:51;;;;;;;2.85;1.88;;;24.10;99.30;;;;;;5113345;28;20054;-72
2023/08/09 13:06:18;;;;;;;2.03;1.15;;;23.90;98.50;;;;;;5117427;28;20028;-70
2023/08/09 13:08:48;;;;;;;3.03;1.40;;;23.80;98.70;;;;;;5113161;28;20027;-70
2023/08/09 13:11:14;;;;;;;3.22;1.80;;;23.70;98.60;;;;;;5112429;28;20024;-70
2023/08/09 13:13:40;;;;;;;3.38;1.70;;;23.70;98.50;;;;;;5112489;28;20027;-70
2023/08/09 13:16:09;;;;;;;5.25;1.85;;;23.70;98.80;;;;;;5112848;28;20457;-73
2023/08/09 13:18:38;;;;;;;4.28;1.63;;;23.70;99.00;;;;;;5111824;28;20023;-70
2023/08/09 13:21:06;;;;;;;3.43;1.50;;;23.80;98.90;;;;;;5112197;28;20051;-72
2023/08/09 13:23:32;;;;;;;5.45;1.60;;;23.90;98.90;;;;;;5111093;28;20875;-71
2023/08/09 13:25:58;;;;;;;3.42;1.50;;;23.70;98.90;;;;;;5112437;28;20030;-72
2023/08/09 13:28:24;;;;;;;4.10;1.52;;;23.60;99.20;;;;;;5128247;27;20051;-71
2023/08/09 13:30:49;;;;;;;2.20;1.33;;;23.50;99.40;;;;;;5132836;28;20028;-71
2023/08/09 13:33:15;;;;;;;2.72;1.42;;;23.50;99.80;;;;;;5132348;28;20094;-71
2023/08/09 13:35:45;;;;;;;2.80;1.67;;;23.60;99.50;;;;;;5132658;28;20103;-71
2023/08/09 13:38:32;;;;;;;2.72;1.48;;;23.70;99.50;;;;;;5133295;28;20062;-71
2023/08/09 13:40:58;;;;;;;5.10;1.85;;;23.70;99.60;;;;;;5132829;28;20107;-71
2023/08/09 13:43:26;;;;;;;2.35;1.60;;;23.80;99.80;;;;;;5132015;28;20025;-71
2023/08/09 13:45:51;;;;;;;2.55;1.67;;;24.10;99.40;;;;;;5114251;28;20020;-71
2023/08/09 13:48:17;;;;;;;1.95;1.50;;;24.30;98.60;;;;;;5131884;28;20061;-71
2023/08/09 13:50:47;;;;;;;2.45;1.23;;;24.50;99.90;;;;;;5132695;28;20031;-71
2023/08/09 13:53:13;;;;;;;;;;;24.60;99.90;;;;;;5133049;28;20106;-72
2023/08/09 13:55:40;;;;;;;6.00;1.70;;;24.80;99.50;;;;;;5131955;28;19947;-71
2023/08/09 13:58:06;;;;;;;3.95;1.38;;;25.00;98.50;;;;;;5132577;28;20027;-72